sensor_id;sensor_type;location;lat;lon;timestamp;pressure;altitude;pressure_sealevel;temperature;humidity
21273;BME280;36726;52.328;10.552;2022-10-17T00:00:38;101037.56;;;14.16;100.00
21273;BME280;36726;52.328;10.552;2022-10-17T00:03:05;101037.56;;;14.17;100.00
21273;BME280;36726;52.328;10.552;2022-10-17T00:05:32;101034.06;;;14.20;100.00
21273;BME280;36726;52.328;10.552;2022-10-17T00:07:58;101035.81;;;14.21;100.00
21273;BME280;36726;52.328;10.552;2022-10-17T00:10:25;101041.13;;;14.18;100.00
21273;BME280;36726;52.328;10.552;2022-10-17T00:12:51;101044.66;;;14.14;100.00
21273;BME280;36726;52.328;10.552;2022-10-17T00:15:19;101043.75;;;14.10;100.00
21273;BME280;36726;52.328;10.552;2022-10-17T00:17:49;101040.19;;;14.07;100.00
21273;BME280;36726;52.328;10.552;2022-10-17T00:20:15;101041.06;;;14.04;100.00
21273;BME280;36726;52.328;10.552;2022-10-17T00:22:42;101042.84;;;14.02;100.00
21273;BME280;36726;52.328;10.552;2022-10-17T00:25:09;101031.28;;;14.02;100.00
21273;BME280;36726;52.328;10.552;2022-10-17T00:27:40;101021.56;;;14.04;100.00
21273;BME280;36726;52.328;10.552;2022-10-17T00:30:11;101026.88;;;14.07;100.00
21273;BME280;36726;52.328;10.552;2022-10-17T00:32:38;101018.94;;;14.10;100.00
21273;BME280;36726;52.328;10.552;2022-10-17T00:35:06;101023.34;;;14.08;100.00
21273;BME280;36726;52.328;10.552;2022-10-17T00:37:37;101024.22;;;14.05;100.00
21273;BME280;36726;52.328;10.552;2022-10-17T00:40:05;101027.72;;;14.03;100.00
21273;BME280;36726;52.328;10.552;2022-10-17T00:42:32;101021.50;;;13.98;100.00
21273;BME280;36726;52.328;10.552;2022-10-17T00:45:27;101016.16;;;13.92;100.00
21273;BME280;36726;52.328;10.552;2022-10-17T00:47:58;101015.25;;;13.90;100.00
21273;BME280;36726;52.328;10.552;2022-10-17T00:50:26;101017.94;;;13.90;100.00
21273;BME280;36726;52.328;10.552;2022-10-17T00:52:57;101009.94;;;13.90;100.00
21273;BME280;36726;52.328;10.552;2022-10-17T00:55:30;101016.16;;;13.92;100.00
21273;BME280;36726;52.328;10.552;2022-10-17T00:57:59;101010.84;;;13.92;100.00
21273;BME280;36726;52.328;10.552;2022-10-17T01:00:28;101014.38;;;13.91;100.00
21273;BME280;36726;52.328;10.552;2022-10-17T01:02:56;101001.97;;;13.90;100.00
21273;BME280;36726;52.328;10.552;2022-10-17T01:05:23;100995.75;;;13.88;100.00
21273;BME280;36726;52.328;10.552;2022-10-17T01:07:50;100998.38;;;13.85;100.00
21273;BME280;36726;52.328;10.552;2022-10-17T01:10:19;101000.13;;;13.80;100.00
21273;BME280;36726;52.328;10.552;2022-10-17T01:12:57;101004.53;;;13.76;100.00
21273;BME280;36726;52.328;10.552;2022-10-17T01:15:40;100997.44;;;13.74;100.00
21273;BME280;36726;52.328;10.552;2022-10-17T01:24:23;100991.16;;;13.69;100.00
21273;BME280;36726;52.328;10.552;2022-10-17T01:29:36;100992.91;;;13.61;100.00
21273;BME280;36726;52.328;10.552;2022-10-17T01:32:16;100993.75;;;13.57;100.00
21273;BME280;36726;52.328;10.552;2022-10-17T01:37:53;100998.09;;;13.48;100.00
21273;BME280;36726;52.328;10.552;2022-10-17T01:40:25;100990.13;;;13.45;100.00
21273;BME280;36726;52.328;10.552;2022-10-17T01:43:02;100980.34;;;13.41;100.00
21273;BME280;36726;52.328;10.552;2022-10-17T01:45:36;100989.19;;;13.40;100.00
21273;BME280;36726;52.328;10.552;2022-10-17T01:48:08;100989.19;;;13.40;100.00
21273;BME280;36726;52.328;10.552;2022-10-17T01:50:41;100985.66;;;13.40;100.00
21273;BME280;36726;52.328;10.552;2022-10-17T01:53:15;100982.97;;;13.37;100.00
21273;BME280;36726;52.328;10.552;2022-10-17T01:55:45;100984.72;;;13.35;100.00
21273;BME280;36726;52.328;10.552;2022-10-17T01:58:23;100977.66;;;13.34;100.00
21273;BME280;36726;52.328;10.552;2022-10-17T02:00:55;100974.94;;;13.32;100.00
21273;BME280;36726;52.328;10.552;2022-10-17T02:03:24;100965.22;;;13.31;100.00
21273;BME280;36726;52.328;10.552;2022-10-17T02:05:53;100966.09;;;13.30;100.00
21273;BME280;36726;52.328;10.552;2022-10-17T02:08:25;100968.72;;;13.29;100.00
21273;BME280;36726;52.328;10.552;2022-10-17T02:10:59;100971.38;;;13.26;100.00
21273;BME280;36726;52.328;10.552;2022-10-17T02:16:33;100966.88;;;13.20;100.00
21273;BME280;36726;52.328;10.552;2022-10-17T02:19:26;100969.53;;;13.19;100.00
21273;BME280;36726;52.328;10.552;2022-10-17T02:27:51;100962.38;;;13.10;100.00
21273;BME280;36726;52.328;10.552;2022-10-17T02:30:29;100964.13;;;13.08;100.00
21273;BME280;36726;52.328;10.552;2022-10-17T02:33:07;100956.13;;;13.05;100.00
21273;BME280;36726;52.328;10.552;2022-10-17T02:35:40;100955.25;;;13.03;100.00
21273;BME280;36726;52.328;10.552;2022-10-17T02:38:09;100951.66;;;13.01;100.00
21273;BME280;36726;52.328;10.552;2022-10-17T02:40:38;100953.41;;;12.99;100.00
21273;BME280;36726;52.328;10.552;2022-10-17T02:43:06;100949.84;;;12.97;100.00
21273;BME280;36726;52.328;10.552;2022-10-17T02:45:35;100951.59;;;12.97;100.00
21273;BME280;36726;52.328;10.552;2022-10-17T02:50:57;100951.56;;;12.94;100.00
21273;BME280;36726;52.328;10.552;2022-10-17T02:53:33;100955.06;;;12.91;100.00
21273;BME280;36726;52.328;10.552;2022-10-17T02:56:07;100949.75;;;12.88;100.00
21273;BME280;36726;52.328;10.552;2022-10-17T02:58:38;100952.38;;;12.85;100.00
21273;BME280;36726;52.328;10.552;2022-10-17T03:01:05;100948.81;;;12.83;100.00
21273;BME280;36726;52.328;10.552;2022-10-17T03:03:33;100945.28;;;12.83;100.00
21273;BME280;36726;52.328;10.552;2022-10-17T03:06:00;100942.59;;;12.81;100.00
21273;BME280;36726;52.328;10.552;2022-10-17T03:08:27;100945.25;;;12.80;100.00
21273;BME280;36726;52.328;10.552;2022-10-17T03:10:55;100948.75;;;12.79;100.00
21273;BME280;36726;52.328;10.552;2022-10-17T03:13:24;100955.81;;;12.78;100.00
21273;BME280;36726;52.328;10.552;2022-10-17T03:15:51;100946.97;;;12.76;100.00
21273;BME280;36726;52.328;10.552;2022-10-17T03:18:17;100953.16;;;12.75;100.00
21273;BME280;36726;52.328;10.552;2022-10-17T03:20:46;100952.25;;;12.75;100.00
21273;BME280;36726;52.328;10.552;2022-10-17T03:23:12;100952.25;;;12.73;100.00
21273;BME280;36726;52.328;10.552;2022-10-17T03:25:39;100952.25;;;12.73;100.00
21273;BME280;36726;52.328;10.552;2022-10-17T03:28:06;100954.88;;;12.72;100.00
21273;BME280;36726;52.328;10.552;2022-10-17T03:30:37;100951.34;;;12.71;100.00
21273;BME280;36726;52.328;10.552;2022-10-17T03:33:04;100957.53;;;12.70;100.00
21273;BME280;36726;52.328;10.552;2022-10-17T03:35:30;100953.06;;;12.69;100.00
21273;BME280;36726;52.328;10.552;2022-10-17T03:37:57;100948.66;;;12.70;100.00
21273;BME280;36726;52.328;10.552;2022-10-17T03:40:26;100946.91;;;12.70;100.00
21273;BME280;36726;52.328;10.552;2022-10-17T03:42:52;100941.59;;;12.69;100.00
21273;BME280;36726;52.328;10.552;2022-10-17T03:45:19;100936.28;;;12.69;100.00
21273;BME280;36726;52.328;10.552;2022-10-17T03:47:46;100946.91;;;12.69;100.00
21273;BME280;36726;52.328;10.552;2022-10-17T03:50:14;100953.97;;;12.68;100.00
21273;BME280;36726;52.328;10.552;2022-10-17T03:52:45;100963.69;;;12.69;100.00
21273;BME280;36726;52.328;10.552;2022-10-17T03:55:12;100969.91;;;12.70;100.00
21273;BME280;36726;52.328;10.552;2022-10-17T03:57:38;100963.69;;;12.69;100.00
21273;BME280;36726;52.328;10.552;2022-10-17T04:00:11;100967.22;;;12.68;100.00
21273;BME280;36726;52.328;10.552;2022-10-17T04:02:40;100960.16;;;12.67;100.00
21273;BME280;36726;52.328;10.552;2022-10-17T04:05:12;100965.47;;;12.69;100.00
21273;BME280;36726;52.328;10.552;2022-10-17T04:07:39;100961.94;;;12.68;100.00
21273;BME280;36726;52.328;10.552;2022-10-17T04:10:07;100966.34;;;12.69;100.00
21273;BME280;36726;52.328;10.552;2022-10-17T04:12:33;100962.81;;;12.69;100.00
21273;BME280;36726;52.328;10.552;2022-10-17T04:15:00;100962.81;;;12.69;100.00
21273;BME280;36726;52.328;10.552;2022-10-17T04:17:29;100956.63;;;12.71;100.00
21273;BME280;36726;52.328;10.552;2022-10-17T04:20:03;100971.75;;;12.77;100.00
21273;BME280;36726;52.328;10.552;2022-10-17T04:22:30;100969.16;;;12.81;100.00
21273;BME280;36726;52.328;10.552;2022-10-17T04:24:57;100960.28;;;12.82;100.00
21273;BME280;36726;52.328;10.552;2022-10-17T04:27:36;100965.66;;;12.85;100.00
21273;BME280;36726;52.328;10.552;2022-10-17T04:30:05;100955.06;;;12.88;100.00
21273;BME280;36726;52.328;10.552;2022-10-17T04:32:35;100958.63;;;12.92;100.00
21273;BME280;36726;52.328;10.552;2022-10-17T04:35:11;100957.78;;;12.97;100.00
21273;BME280;36726;52.328;10.552;2022-10-17T04:37:42;100962.22;;;12.98;100.00
21273;BME280;36726;52.328;10.552;2022-10-17T04:40:15;100960.47;;;13.00;100.00
21273;BME280;36726;52.328;10.552;2022-10-17T04:42:42;100971.09;;;13.02;100.00
21273;BME280;36726;52.328;10.552;2022-10-17T04:45:11;100972.94;;;13.04;100.00
21273;BME280;36726;52.328;10.552;2022-10-17T04:47:39;100968.53;;;13.06;100.00
21273;BME280;36726;52.328;10.552;2022-10-17T04:50:06;100972.09;;;13.08;100.00
21273;BME280;36726;52.328;10.552;2022-10-17T04:52:34;100973.88;;;13.11;100.00
21273;BME280;36726;52.328;10.552;2022-10-17T04:55:04;100970.38;;;13.12;100.00
21273;BME280;36726;52.328;10.552;2022-10-17T04:57:35;100972.13;;;13.14;100.00
21273;BME280;36726;52.328;10.552;2022-10-17T05:00:12;100962.41;;;13.16;100.00
21273;BME280;36726;52.328;10.552;2022-10-17T05:02:54;100969.53;;;13.17;100.00
21273;BME280;36726;52.328;10.552;2022-10-17T05:05:20;100965.09;;;13.18;100.00
21273;BME280;36726;52.328;10.552;2022-10-17T05:07:50;100965.97;;;13.18;100.00
21273;BME280;36726;52.328;10.552;2022-10-17T05:10:18;100960.69;;;13.20;100.00
21273;BME280;36726;52.328;10.552;2022-10-17T05:12:48;100964.22;;;13.20;100.00
21273;BME280;36726;52.328;10.552;2022-10-17T05:15:17;100969.53;;;13.20;100.00
21273;BME280;36726;52.328;10.552;2022-10-17T05:17:44;100958.91;;;13.20;100.00
21273;BME280;36726;52.328;10.552;2022-10-17T05:20:11;100960.72;;;13.21;100.00
21273;BME280;36726;52.328;10.552;2022-10-17T05:22:39;100960.72;;;13.21;100.00
21273;BME280;36726;52.328;10.552;2022-10-17T05:25:09;100960.72;;;13.21;100.00
21273;BME280;36726;52.328;10.552;2022-10-17T05:27:35;100965.13;;;13.22;100.00
21273;BME280;36726;52.328;10.552;2022-10-17T05:30:02;100963.38;;;13.23;100.00
21273;BME280;36726;52.328;10.552;2022-10-17T05:32:32;100960.72;;;13.24;100.00
21273;BME280;36726;52.328;10.552;2022-10-17T05:34:59;100969.59;;;13.26;100.00
21273;BME280;36726;52.328;10.552;2022-10-17T05:37:28;100978.44;;;13.27;100.00
21273;BME280;36726;52.328;10.552;2022-10-17T05:39:55;100977.59;;;13.29;100.00
21273;BME280;36726;52.328;10.552;2022-10-17T05:42:23;100972.28;;;13.32;100.00
21273;BME280;36726;52.328;10.552;2022-10-17T05:44:50;100975.84;;;13.36;100.00
21273;BME280;36726;52.328;10.552;2022-10-17T05:47:18;100984.75;;;13.39;100.00
21273;BME280;36726;52.328;10.552;2022-10-17T05:49:44;100983.00;;;13.41;100.00
21273;BME280;36726;52.328;10.552;2022-10-17T05:52:21;100980.34;;;13.41;100.00
21273;BME280;36726;52.328;10.552;2022-10-17T05:55:10;100982.13;;;13.42;100.00
21273;BME280;36726;52.328;10.552;2022-10-17T05:57:37;100991.00;;;13.44;100.00
21273;BME280;36726;52.328;10.552;2022-10-17T06:00:08;100992.78;;;13.45;100.00
21273;BME280;36726;52.328;10.552;2022-10-17T06:02:42;100990.13;;;13.45;100.00
21273;BME280;36726;52.328;10.552;2022-10-17T06:05:13;100995.44;;;13.45;100.00
21273;BME280;36726;52.328;10.552;2022-10-17T06:07:40;100994.59;;;13.48;100.00
21273;BME280;36726;52.328;10.552;2022-10-17T06:10:08;100995.44;;;13.48;100.00
21273;BME280;36726;52.328;10.552;2022-10-17T06:12:35;101004.31;;;13.50;100.00
21273;BME280;36726;52.328;10.552;2022-10-17T06:15:02;101005.22;;;13.52;100.00
21273;BME280;36726;52.328;10.552;2022-10-17T06:17:29;101003.47;;;13.54;100.00
21273;BME280;36726;52.328;10.552;2022-10-17T06:19:56;101005.28;;;13.56;100.00
21273;BME280;36726;52.328;10.552;2022-10-17T06:22:23;101005.28;;;13.59;100.00
21273;BME280;36726;52.328;10.552;2022-10-17T06:24:49;101010.63;;;13.62;100.00
21273;BME280;36726;52.328;10.552;2022-10-17T06:27:18;101008.88;;;13.64;100.00
21273;BME280;36726;52.328;10.552;2022-10-17T06:29:46;101009.75;;;13.64;100.00
21273;BME280;36726;52.328;10.552;2022-10-17T06:32:13;101017.75;;;13.67;100.00
21273;BME280;36726;52.328;10.552;2022-10-17T06:34:43;101005.34;;;13.69;100.00
21273;BME280;36726;52.328;10.552;2022-10-17T06:37:10;101015.13;;;13.70;100.00
21273;BME280;36726;52.328;10.552;2022-10-17T06:39:38;101017.81;;;13.72;100.00
21273;BME280;36726;52.328;10.552;2022-10-17T06:42:15;101021.38;;;13.74;100.00
21273;BME280;36726;52.328;10.552;2022-10-17T06:44:45;101019.63;;;13.77;100.00
21273;BME280;36726;52.328;10.552;2022-10-17T06:47:30;101037.34;;;13.81;100.00
21273;BME280;36726;52.328;10.552;2022-10-17T06:50:02;101032.91;;;13.82;100.00
21273;BME280;36726;52.328;10.552;2022-10-17T06:52:41;101030.28;;;13.85;100.00
21273;BME280;36726;52.328;10.552;2022-10-17T06:55:40;101025.00;;;13.88;100.00
21273;BME280;36726;52.328;10.552;2022-10-17T06:58:21;101015.28;;;13.91;100.00
21273;BME280;36726;52.328;10.552;2022-10-17T07:01:05;101021.50;;;13.95;100.00
21273;BME280;36726;52.328;10.552;2022-10-17T07:03:33;101027.72;;;14.01;100.00
21273;BME280;36726;52.328;10.552;2022-10-17T07:06:00;101030.44;;;14.06;100.00
21273;BME280;36726;52.328;10.552;2022-10-17T07:08:27;101026.94;;;14.13;100.00
21273;BME280;36726;52.328;10.552;2022-10-17T07:10:54;101035.81;;;14.21;100.00
21273;BME280;36726;52.328;10.552;2022-10-17T07:13:21;101038.56;;;14.28;100.00
21273;BME280;36726;52.328;10.552;2022-10-17T07:15:49;101035.09;;;14.38;100.00
21273;BME280;36726;52.328;10.552;2022-10-17T07:18:16;101030.69;;;14.48;100.00
21273;BME280;36726;52.328;10.552;2022-10-17T07:20:42;101038.72;;;14.59;100.00
21273;BME280;36726;52.328;10.552;2022-10-17T07:23:09;101026.31;;;14.67;100.00
21273;BME280;36726;52.328;10.552;2022-10-17T07:25:36;101034.34;;;14.77;100.00
21273;BME280;36726;52.328;10.552;2022-10-17T07:28:07;101044.16;;;14.87;100.00
21273;BME280;36726;52.328;10.552;2022-10-17T07:30:33;101033.50;;;14.95;100.00
21273;BME280;36726;52.328;10.552;2022-10-17T07:33:08;101035.28;;;15.00;100.00
21273;BME280;36726;52.328;10.552;2022-10-17T07:35:36;101031.75;;;15.06;100.00
21273;BME280;36726;52.328;10.552;2022-10-17T07:38:03;101045.09;;;15.10;100.00
21273;BME280;36726;52.328;10.552;2022-10-17T07:40:30;101048.66;;;15.15;100.00
21273;BME280;36726;52.328;10.552;2022-10-17T07:42:59;101050.44;;;15.19;100.00
21273;BME280;36726;52.328;10.552;2022-10-17T07:45:26;101055.78;;;15.25;100.00
21273;BME280;36726;52.328;10.552;2022-10-17T07:47:56;101059.34;;;15.30;100.00
21273;BME280;36726;52.328;10.552;2022-10-17T07:50:24;101067.34;;;15.38;100.00
21273;BME280;36726;52.328;10.552;2022-10-17T07:52:50;101059.38;;;15.45;100.00
21273;BME280;36726;52.328;10.552;2022-10-17T07:55:17;101057.63;;;15.53;100.00
21273;BME280;36726;52.328;10.552;2022-10-17T07:57:43;101053.16;;;15.60;100.00
21273;BME280;36726;52.328;10.552;2022-10-17T08:00:10;101054.97;;;15.69;100.00
21273;BME280;36726;52.328;10.552;2022-10-17T08:02:40;101058.50;;;15.80;100.00
21273;BME280;36726;52.328;10.552;2022-10-17T08:05:07;101057.59;;;15.93;100.00
21273;BME280;36726;52.328;10.552;2022-10-17T08:07:33;101060.22;;;16.11;100.00
21273;BME280;36726;52.328;10.552;2022-10-17T08:10:00;101063.75;;;16.25;100.00
21273;BME280;36726;52.328;10.552;2022-10-17T08:12:27;101069.06;;;16.41;100.00
21273;BME280;36726;52.328;10.552;2022-10-17T08:14:58;101069.03;;;16.58;100.00
21273;BME280;36726;52.328;10.552;2022-10-17T08:17:24;101058.31;;;16.70;100.00
21273;BME280;36726;52.328;10.552;2022-10-17T08:19:51;101059.16;;;16.81;100.00
21273;BME280;36726;52.328;10.552;2022-10-17T08:22:18;101061.78;;;16.90;100.00
21273;BME280;36726;52.328;10.552;2022-10-17T08:24:44;101059.94;;;17.00;100.00
21273;BME280;36726;52.328;10.552;2022-10-17T08:27:12;101055.44;;;17.06;100.00
21273;BME280;36726;52.328;10.552;2022-10-17T08:29:39;101050.06;;;17.14;100.00
21273;BME280;36726;52.328;10.552;2022-10-17T08:32:06;101058.94;;;17.17;100.00
21273;BME280;36726;52.328;10.552;2022-10-17T08:34:35;101057.13;;;17.22;100.00
21273;BME280;36726;52.328;10.552;2022-10-17T08:37:02;101054.44;;;17.27;100.00
21273;BME280;36726;52.328;10.552;2022-10-17T08:39:29;101056.19;;;17.31;100.00
21273;BME280;36726;52.328;10.552;2022-10-17T08:44:58;101064.16;;;17.41;100.00
21273;BME280;36726;52.328;10.552;2022-10-17T08:50:02;101053.34;;;17.59;100.00
21273;BME280;36726;52.328;10.552;2022-10-17T08:53:14;101046.09;;;17.74;100.00
21273;BME280;36726;52.328;10.552;2022-10-17T08:55:40;101045.97;;;17.89;100.00
21273;BME280;36726;52.328;10.552;2022-10-17T08:58:20;101055.63;;;18.05;100.00
21273;BME280;36726;52.328;10.552;2022-10-17T09:06:18;101049.78;;;18.51;100.00
21273;BME280;36726;52.328;10.552;2022-10-17T09:09:02;101041.53;;;18.68;100.00
21273;BME280;36726;52.328;10.552;2022-10-17T09:20:25;101040.50;;;19.42;100.00
21273;BME280;36726;52.328;10.552;2022-10-17T09:23:14;101031.31;;;19.56;99.88
21273;BME280;36726;52.328;10.552;2022-10-17T09:25:52;101031.09;;;19.69;99.23
21273;BME280;36726;52.328;10.552;2022-10-17T09:28:29;101035.38;;;19.79;99.03
21273;BME280;36726;52.328;10.552;2022-10-17T09:33:46;101044.91;;;19.98;97.11
21273;BME280;36726;52.328;10.552;2022-10-17T09:36:21;101034.97;;;20.03;96.27
21273;BME280;36726;52.328;10.552;2022-10-17T09:38:52;101035.72;;;20.11;95.90
21273;BME280;36726;52.328;10.552;2022-10-17T09:41:22;101040.09;;;20.18;95.63
21273;BME280;36726;52.328;10.552;2022-10-17T09:44:32;101029.16;;;20.28;94.19
21273;BME280;36726;52.328;10.552;2022-10-17T09:49:38;101026.06;;;20.48;93.81
21273;BME280;36726;52.328;10.552;2022-10-17T09:52:15;101035.75;;;20.55;93.06
21273;BME280;36726;52.328;10.552;2022-10-17T09:54:48;101038.34;;;20.61;92.52
21273;BME280;36726;52.328;10.552;2022-10-17T09:57:17;101031.91;;;20.68;91.91
21273;BME280;36726;52.328;10.552;2022-10-17T09:59:56;101035.38;;;20.73;91.07
21273;BME280;36726;52.328;10.552;2022-10-17T10:02:24;101030.81;;;20.77;90.60
21273;BME280;36726;52.328;10.552;2022-10-17T10:07:37;101041.41;;;20.84;89.76
21273;BME280;36726;52.328;10.552;2022-10-17T10:10:23;101046.72;;;20.87;89.54
21273;BME280;36726;52.328;10.552;2022-10-17T10:13:16;101045.88;;;20.87;89.02
21273;BME280;36726;52.328;10.552;2022-10-17T10:15:45;101048.50;;;20.88;88.67
21273;BME280;36726;52.328;10.552;2022-10-17T10:18:41;101054.78;;;20.89;88.14
21273;BME280;36726;52.328;10.552;2022-10-17T10:21:13;101050.28;;;20.89;87.08
21273;BME280;36726;52.328;10.552;2022-10-17T10:23:42;101058.28;;;20.91;86.67
21273;BME280;36726;52.328;10.552;2022-10-17T10:26:22;101058.22;;;20.95;86.98
21273;BME280;36726;52.328;10.552;2022-10-17T10:31:28;101062.38;;;21.11;84.63
21273;BME280;36726;52.328;10.552;2022-10-17T10:33:58;101054.13;;;21.19;82.60
21273;BME280;36726;52.328;10.552;2022-10-17T10:39:35;101054.47;;;21.42;82.05
21273;BME280;36726;52.328;10.552;2022-10-17T10:42:06;101064.94;;;21.54;80.65
21273;BME280;36726;52.328;10.552;2022-10-17T10:44:35;101058.47;;;21.62;79.12
21273;BME280;36726;52.328;10.552;2022-10-17T10:47:19;101049.22;;;21.73;78.93
21273;BME280;36726;52.328;10.552;2022-10-17T10:49:49;101046.44;;;21.79;78.80
21273;BME280;36726;52.328;10.552;2022-10-17T10:52:41;101049.03;;;21.82;77.43
21273;BME280;36726;52.328;10.552;2022-10-17T10:55:23;101047.94;;;21.89;76.42
21273;BME280;36726;52.328;10.552;2022-10-17T10:57:56;101056.78;;;21.94;76.70
21273;BME280;36726;52.328;10.552;2022-10-17T11:00:26;101060.38;;;21.94;76.22
21273;BME280;36726;52.328;10.552;2022-10-17T11:05:38;101064.84;;;21.95;75.30
21273;BME280;36726;52.328;10.552;2022-10-17T11:08:16;101064.88;;;21.94;74.00
21273;BME280;36726;52.328;10.552;2022-10-17T11:11:16;101075.63;;;21.95;74.74
21273;BME280;36726;52.328;10.552;2022-10-17T11:18:54;101076.25;;;22.05;71.11
21273;BME280;36726;52.328;10.552;2022-10-17T11:21:35;101068.06;;;22.09;70.38
21273;BME280;36726;52.328;10.552;2022-10-17T11:24:11;101082.25;;;22.16;70.18
21273;BME280;36726;52.328;10.552;2022-10-17T11:26:45;101085.72;;;22.21;71.38
21273;BME280;36726;52.328;10.552;2022-10-17T11:29:14;101072.09;;;22.27;72.23
21273;BME280;36726;52.328;10.552;2022-10-17T11:31:45;101075.53;;;22.32;71.56
21273;BME280;36726;52.328;10.552;2022-10-17T11:36:49;101080.38;;;22.51;71.94
21273;BME280;36726;52.328;10.552;2022-10-17T11:39:21;101084.63;;;22.61;70.33
21273;BME280;36726;52.328;10.552;2022-10-17T11:41:52;101069.03;;;22.73;69.58
21273;BME280;36726;52.328;10.552;2022-10-17T11:44:28;101068.88;;;22.77;68.98
21273;BME280;36726;52.328;10.552;2022-10-17T11:46:59;101092.16;;;22.81;68.92
21273;BME280;36726;52.328;10.552;2022-10-17T11:49:33;101061.47;;;22.85;68.80
21273;BME280;36726;52.328;10.552;2022-10-17T11:52:31;101069.28;;;22.94;68.72
21273;BME280;36726;52.328;10.552;2022-10-17T11:55:24;101060.97;;;23.00;69.41
21273;BME280;36726;52.328;10.552;2022-10-17T12:03:42;101059.63;;;23.15;67.97
21273;BME280;36726;52.328;10.552;2022-10-17T12:11:32;101051.47;;;23.16;67.95
21273;BME280;36726;52.328;10.552;2022-10-17T12:14:00;101052.38;;;23.17;67.82
21273;BME280;36726;52.328;10.552;2022-10-17T12:16:35;101045.06;;;23.20;68.16
21273;BME280;36726;52.328;10.552;2022-10-17T12:22:01;101046.84;;;23.21;68.03
21273;BME280;36726;52.328;10.552;2022-10-17T12:24:42;101039.66;;;23.20;67.23
21273;BME280;36726;52.328;10.552;2022-10-17T12:27:32;101051.41;;;23.19;66.27
21273;BME280;36726;52.328;10.552;2022-10-17T12:33:03;101055.91;;;23.19;65.77
21273;BME280;36726;52.328;10.552;2022-10-17T12:35:35;101061.25;;;23.20;65.72
21273;BME280;36726;52.328;10.552;2022-10-17T12:38:14;101072.91;;;23.22;65.83
21273;BME280;36726;52.328;10.552;2022-10-17T12:51:02;101064.38;;;23.37;63.11
21273;BME280;36726;52.328;10.552;2022-10-17T12:54:09;101058.72;;;23.45;63.93
21273;BME280;36726;52.328;10.552;2022-10-17T12:59:25;101047.72;;;23.51;63.46
21273;BME280;36726;52.328;10.552;2022-10-17T13:01:58;101043.31;;;23.48;63.95
21273;BME280;36726;52.328;10.552;2022-10-17T13:04:26;101038.22;;;23.39;63.41
21273;BME280;36726;52.328;10.552;2022-10-17T13:06:56;101045.34;;;23.40;63.80
21273;BME280;36726;52.328;10.552;2022-10-17T13:09:29;101054.19;;;23.45;63.97
21273;BME280;36726;52.328;10.552;2022-10-17T13:12:02;101051.59;;;23.42;62.56
21273;BME280;36726;52.328;10.552;2022-10-17T13:14:31;101056.16;;;23.40;61.61
21273;BME280;36726;52.328;10.552;2022-10-17T13:17:01;101059.69;;;23.42;61.49
21273;BME280;36726;52.328;10.552;2022-10-17T13:19:40;101065.00;;;23.45;61.92
21273;BME280;36726;52.328;10.552;2022-10-17T13:22:16;101054.19;;;23.45;62.05
21273;BME280;36726;52.328;10.552;2022-10-17T13:24:43;101068.53;;;23.47;62.28
21273;BME280;36726;52.328;10.552;2022-10-17T13:29:48;101073.16;;;23.44;62.45
21273;BME280;36726;52.328;10.552;2022-10-17T13:32:15;101078.53;;;23.44;62.65
21273;BME280;36726;52.328;10.552;2022-10-17T13:34:42;101075.00;;;23.42;62.18
21273;BME280;36726;52.328;10.552;2022-10-17T13:37:13;101071.53;;;23.38;62.56
21273;BME280;36726;52.328;10.552;2022-10-17T13:39:42;101067.94;;;23.38;62.36
21273;BME280;36726;52.328;10.552;2022-10-17T13:42:27;101079.63;;;23.38;62.39
21273;BME280;36726;52.328;10.552;2022-10-17T13:44:55;101075.22;;;23.36;62.43
21273;BME280;36726;52.328;10.552;2022-10-17T13:47:26;101087.94;;;23.32;62.39
21273;BME280;36726;52.328;10.552;2022-10-17T13:49:53;101096.09;;;23.29;62.98
21273;BME280;36726;52.328;10.552;2022-10-17T13:52:25;101102.53;;;23.24;62.79
21273;BME280;36726;52.328;10.552;2022-10-17T13:54:55;101103.56;;;23.20;62.76
21273;BME280;36726;52.328;10.552;2022-10-17T13:57:31;101104.56;;;23.17;63.26
21273;BME280;36726;52.328;10.552;2022-10-17T14:00:18;101122.66;;;23.14;63.42
21273;BME280;36726;52.328;10.552;2022-10-17T14:02:46;101119.16;;;23.10;63.78
21273;BME280;36726;52.328;10.552;2022-10-17T14:05:18;101125.53;;;23.08;64.09
21273;BME280;36726;52.328;10.552;2022-10-17T14:10:38;101130.19;;;23.03;64.85
21273;BME280;36726;52.328;10.552;2022-10-17T14:13:06;101126.63;;;23.01;65.20
21273;BME280;36726;52.328;10.552;2022-10-17T14:15:44;101118.72;;;22.95;65.38
21273;BME280;36726;52.328;10.552;2022-10-17T14:18:20;101121.59;;;22.89;65.37
21273;BME280;36726;52.328;10.552;2022-10-17T14:20:48;101119.03;;;22.84;65.40
21273;BME280;36726;52.328;10.552;2022-10-17T14:23:42;101108.38;;;22.80;65.61
21273;BME280;36726;52.328;10.552;2022-10-17T14:26:20;101112.03;;;22.77;65.67
21273;BME280;36726;52.328;10.552;2022-10-17T14:29:04;101123.81;;;22.75;65.89
21273;BME280;36726;52.328;10.552;2022-10-17T14:31:35;101128.31;;;22.74;65.88
21273;BME280;36726;52.328;10.552;2022-10-17T14:34:03;101123.78;;;22.76;66.45
21273;BME280;36726;52.328;10.552;2022-10-17T14:36:35;101129.16;;;22.76;66.28
21273;BME280;36726;52.328;10.552;2022-10-17T14:39:05;101132.78;;;22.75;66.56